Time;durP1;ratioP1;P1;durP2;ratioP2;P2;SDS_P1;SDS_P2;PMS_P1;PMS_P2;Temp;Humidity;BMP_temperature;BMP_pressure;BME280_temperature;BME280_humidity;BME280_pressure;Samples;Min_cycle;Max_cycle;Signal;HPM_P1;HPM_P2
2021/05/28 00:00:20;;;;;;;26.27;12.37;;;8.80;99.90;;;;;;5074079;28;20202;-78
2021/05/28 00:02:46;;;;;;;28.33;12.90;;;8.90;99.90;;;;;;5073598;28;20232;-80
2021/05/28 00:05:13;;;;;;;37.73;14.43;;;8.90;99.90;;;;;;5073807;28;20257;-80
2021/05/28 00:07:41;;;;;;;33.17;14.80;;;8.80;99.90;;;;;;5074119;28;20343;-79
2021/05/28 00:10:09;;;;;;;30.03;14.90;;;8.60;99.90;;;;;;5073819;28;20205;-79
2021/05/28 00:12:35;;;;;;;29.43;14.60;;;8.50;99.90;;;;;;5073763;28;20284;-80
2021/05/28 00:15:02;;;;;;;37.03;15.47;;;8.60;99.90;;;;;;5073817;28;20239;-79
2021/05/28 00:17:28;;;;;;;39.40;15.70;;;8.50;99.90;;;;;;5073405;28;20226;-79
2021/05/28 00:19:54;;;;;;;33.07;15.20;;;8.50;99.90;;;;;;5073562;28;20765;-79
2021/05/28 00:22:21;;;;;;;31.33;13.50;;;8.50;99.90;;;;;;5073959;28;20201;-79
2021/05/28 00:24:48;;;;;;;28.23;13.43;;;8.70;99.90;;;;;;5073494;28;20649;-78
2021/05/28 00:27:15;;;;;;;37.17;13.93;;;8.90;99.90;;;;;;5073721;28;20197;-78
2021/05/28 00:29:41;;;;;;;31.03;14.13;;;8.90;99.90;;;;;;5073740;28;20232;-79
2021/05/28 00:32:08;;;;;;;31.70;14.07;;;9.00;99.90;;;;;;5073082;28;20196;-78
2021/05/28 00:34:34;;;;;;;37.90;15.50;;;9.10;99.90;;;;;;5073534;28;20232;-80
2021/05/28 00:37:01;;;;;;;31.50;15.93;;;9.00;99.90;;;;;;5073243;28;20199;-78
2021/05/28 00:39:27;;;;;;;39.03;17.47;;;9.10;99.90;;;;;;5073321;28;20387;-78
2021/05/28 00:41:55;;;;;;;48.00;18.50;;;9.00;99.90;;;;;;5073235;28;20228;-79
2021/05/28 00:44:24;;;;;;;36.83;17.97;;;8.80;99.90;;;;;;5073041;28;20298;-78
2021/05/28 00:46:50;;;;;;;39.83;18.93;;;8.60;99.90;;;;;;5072637;28;20225;-79
2021/05/28 00:49:17;;;;;;;36.70;17.37;;;8.50;99.90;;;;;;5073193;28;20205;-79
2021/05/28 00:51:44;;;;;;;45.87;19.13;;;8.40;99.90;;;;;;5072658;28;20286;-79
2021/05/28 00:54:10;;;;;;;43.13;20.27;;;8.40;99.90;;;;;;5073030;28;20207;-79
2021/05/28 00:56:38;;;;;;;34.87;18.53;;;8.40;99.90;;;;;;5072945;28;20962;-79
2021/05/28 00:59:06;;;;;;;42.90;18.87;;;8.40;99.90;;;;;;5072928;28;20263;-79
2021/05/28 01:01:33;;;;;;;42.07;19.30;;;8.40;99.90;;;;;;5072718;28;20607;-78
2021/05/28 01:04:00;;;;;;;38.70;18.73;;;8.60;99.90;;;;;;5073229;28;20286;-79
2021/05/28 01:06:27;;;;;;;45.13;20.50;;;8.60;99.90;;;;;;5073146;28;20255;-79
2021/05/28 01:08:53;;;;;;;45.73;20.10;;;8.70;99.90;;;;;;5072694;28;20219;-79
2021/05/28 01:11:20;;;;;;;41.37;19.50;;;8.80;99.90;;;;;;5072914;28;20202;-80
2021/05/28 01:13:47;;;;;;;47.77;20.43;;;8.90;99.90;;;;;;5072447;28;20293;-80
2021/05/28 01:16:14;;;;;;;43.43;20.33;;;8.80;99.90;;;;;;5073050;28;20288;-79
2021/05/28 01:18:41;;;;;;;44.50;21.10;;;8.70;99.90;;;;;;5073094;28;20212;-79
2021/05/28 01:21:08;;;;;;;38.00;19.90;;;8.60;99.90;;;;;;5071579;28;20726;-79
2021/05/28 01:23:36;;;;;;;40.60;19.60;;;8.60;99.90;;;;;;5072325;28;20202;-80
2021/05/28 01:26:03;;;;;;;41.07;19.63;;;8.60;99.90;;;;;;5072399;28;20217;-80
2021/05/28 01:28:29;;;;;;;45.57;20.67;;;8.60;99.90;;;;;;5072200;28;20625;-79
2021/05/28 01:30:58;;;;;;;42.63;20.43;;;8.60;99.90;;;;;;5072353;28;20758;-79
2021/05/28 01:33:24;;;;;;;43.70;20.93;;;8.50;99.90;;;;;;5071711;28;20204;-79
2021/05/28 01:35:51;;;;;;;41.10;21.37;;;8.50;99.90;;;;;;5072814;28;20259;-79
2021/05/28 01:38:17;;;;;;;38.43;20.37;;;8.50;99.90;;;;;;5072529;28;20225;-78
2021/05/28 01:40:45;;;;;;;37.33;19.73;;;8.40;99.90;;;;;;5072248;28;20678;-78
2021/05/28 01:43:11;;;;;;;46.00;21.73;;;8.60;99.90;;;;;;5072496;28;20285;-79
2021/05/28 01:45:37;;;;;;;47.00;21.33;;;8.80;99.90;;;;;;5072663;28;20700;-79
2021/05/28 01:48:04;;;;;;;41.93;21.27;;;8.80;99.90;;;;;;5072355;28;20202;-79
2021/05/28 01:50:42;;;;;;;45.33;21.47;;;8.90;99.90;;;;;;5072345;28;20194;-78
2021/05/28 01:53:09;;;;;;;57.07;22.33;;;8.90;99.90;;;;;;5072295;28;20201;-79
2021/05/28 01:55:35;;;;;;;52.10;23.00;;;9.00;99.90;;;;;;5072414;28;20288;-79
2021/05/28 01:58:07;;;;;;;59.83;23.70;;;9.10;99.90;;;;;;5072537;28;20347;-78
2021/05/28 02:00:33;;;;;;;54.10;25.13;;;9.00;99.90;;;;;;5071839;28;20273;-79
2021/05/28 02:03:00;;;;;;;64.53;23.97;;;9.00;99.90;;;;;;5071703;28;20343;-79
2021/05/28 02:05:26;;;;;;;63.17;23.20;;;8.70;99.90;;;;;;5071916;28;20328;-80
2021/05/28 02:07:52;;;;;;;53.23;21.93;;;8.60;99.90;;;;;;5072325;28;20276;-80
2021/05/28 02:10:19;;;;;;;54.47;22.67;;;8.50;99.90;;;;;;5072111;28;20846;-80
2021/05/28 02:12:45;;;;;;;48.00;22.37;;;8.50;99.90;;;;;;5071900;28;20291;-79
2021/05/28 02:15:14;;;;;;;50.53;21.30;;;8.50;99.90;;;;;;5072459;28;20219;-79
2021/05/28 02:17:40;;;;;;;50.80;23.03;;;8.40;99.90;;;;;;5072148;28;20359;-79
2021/05/28 02:20:08;;;;;;;49.90;22.10;;;8.30;99.90;;;;;;5071772;28;20284;-78
2021/05/28 02:22:34;;;;;;;51.20;22.40;;;8.10;99.90;;;;;;5071993;28;20251;-79
2021/05/28 02:25:02;;;;;;;55.03;23.27;;;8.20;99.90;;;;;;5071910;28;20293;-79
2021/05/28 02:27:29;;;;;;;52.97;22.40;;;8.10;99.90;;;;;;5071988;28;20201;-79
2021/05/28 02:29:55;;;;;;;56.43;22.30;;;8.30;99.90;;;;;;5072109;28;20669;-79
2021/05/28 02:32:22;;;;;;;57.57;23.87;;;8.30;99.90;;;;;;5073830;28;20202;-78
2021/05/28 02:34:49;;;;;;;59.43;24.10;;;8.40;99.90;;;;;;5075822;28;20288;-79
2021/05/28 02:37:15;;;;;;;55.47;23.63;;;8.20;99.90;;;;;;5075301;28;20747;-79
2021/05/28 02:39:42;;;;;;;64.57;25.60;;;8.10;99.90;;;;;;5075567;28;20663;-80
2021/05/28 02:42:09;;;;;;;78.13;24.60;;;8.10;99.90;;;;;;5075791;28;20197;-79
2021/05/28 02:44:35;;;;;;;63.90;25.83;;;8.20;99.90;;;;;;5075510;28;20243;-79
2021/05/28 02:47:02;;;;;;;71.87;26.20;;;8.20;99.90;;;;;;5075170;28;20240;-79
2021/05/28 02:49:29;;;;;;;61.83;25.87;;;8.30;99.90;;;;;;5075399;28;20223;-79
2021/05/28 02:51:56;;;;;;;63.00;25.87;;;8.30;99.90;;;;;;5075375;28;20205;-79
2021/05/28 02:54:22;;;;;;;65.13;25.17;;;8.20;99.90;;;;;;5075384;28;20239;-78
2021/05/28 02:56:48;;;;;;;65.00;24.97;;;8.20;99.90;;;;;;5074918;28;20289;-79
2021/05/28 02:59:15;;;;;;;67.27;24.83;;;8.10;99.90;;;;;;5075240;28;20691;-78
2021/05/28 03:01:41;;;;;;;68.77;25.50;;;8.20;99.90;;;;;;5074586;28;20193;-79
2021/05/28 03:04:08;;;;;;;69.53;25.43;;;8.10;99.90;;;;;;5074655;28;20604;-79
2021/05/28 03:06:35;;;;;;;75.20;26.03;;;8.10;99.90;;;;;;5074825;28;20783;-78
2021/05/28 03:09:02;;;;;;;66.43;24.23;;;8.10;99.90;;;;;;5075032;28;20821;-78
2021/05/28 03:11:28;;;;;;;68.70;25.43;;;8.10;99.90;;;;;;5074886;28;20578;-78
2021/05/28 03:13:55;;;;;;;70.37;26.17;;;8.20;99.90;;;;;;5074977;28;20203;-80
2021/05/28 03:16:21;;;;;;;71.77;25.83;;;8.30;99.90;;;;;;5074528;28;20631;-80
2021/05/28 03:18:51;;;;;;;78.90;28.03;;;8.30;99.90;;;;;;5074780;28;20261;-80
2021/05/28 03:21:23;;;;;;;74.40;27.23;;;8.40;99.90;;;;;;5074844;28;20208;-79
2021/05/28 03:23:52;;;;;;;80.47;27.80;;;8.30;99.90;;;;;;5075075;28;20280;-79
2021/05/28 03:26:20;;;;;;;72.20;27.43;;;8.10;99.90;;;;;;5074837;28;20307;-79
2021/05/28 03:28:47;;;;;;;72.57;28.40;;;8.00;99.90;;;;;;5074784;28;20215;-79
2021/05/28 03:31:14;;;;;;;74.13;30.03;;;8.00;99.90;;;;;;5074303;28;20203;-79
2021/05/28 03:33:40;;;;;;;77.27;29.87;;;8.10;99.90;;;;;;5074859;28;20192;-81
2021/05/28 03:36:07;;;;;;;72.23;28.10;;;8.10;99.90;;;;;;5074779;28;20223;-79
2021/05/28 03:38:34;;;;;;;90.40;30.50;;;8.10;99.90;;;;;;5074459;28;20557;-79
2021/05/28 03:41:02;;;;;;;77.63;29.67;;;8.20;99.90;;;;;;5074187;28;20671;-80
2021/05/28 03:43:29;;;;;;;84.90;30.83;;;8.20;99.90;;;;;;5073934;28;20241;-79
2021/05/28 03:45:56;;;;;;;78.30;31.17;;;8.30;99.90;;;;;;5074099;28;20260;-79
2021/05/28 03:48:22;;;;;;;79.53;30.53;;;8.30;99.90;;;;;;5074546;28;20292;-78
2021/05/28 03:50:48;;;;;;;74.27;29.67;;;8.30;99.90;;;;;;5074100;28;20671;-81
2021/05/28 03:53:15;;;;;;;86.73;30.90;;;8.40;99.90;;;;;;5074126;28;20205;-79
2021/05/28 03:55:41;;;;;;;75.50;31.23;;;8.40;99.90;;;;;;5073762;28;20297;-79
2021/05/28 03:58:09;;;;;;;88.57;37.17;;;8.40;99.90;;;;;;5073763;28;20266;-80
2021/05/28 04:00:35;;;;;;;88.70;36.10;;;8.60;99.90;;;;;;5073735;28;20755;-78
2021/05/28 04:03:02;;;;;;;84.00;35.97;;;8.70;99.90;;;;;;5073633;28;20193;-80
2021/05/28 04:05:28;;;;;;;85.77;34.87;;;8.80;99.90;;;;;;5073525;28;20224;-81
2021/05/28 04:07:55;;;;;;;78.90;34.50;;;8.80;99.90;;;;;;5074170;28;20297;-79
2021/05/28 04:10:21;;;;;;;78.57;33.30;;;8.90;99.90;;;;;;5073746;28;20197;-81
2021/05/28 04:12:47;;;;;;;73.00;34.20;;;9.00;99.90;;;;;;5074584;28;20195;-78
2021/05/28 04:15:15;;;;;;;76.23;32.33;;;9.20;99.90;;;;;;5074482;28;20317;-80
2021/05/28 04:17:41;;;;;;;61.17;29.90;;;9.30;99.90;;;;;;5074074;28;20200;-79
2021/05/28 04:20:09;;;;;;;54.03;27.03;;;9.50;99.90;;;;;;5073753;28;20242;-79
2021/05/28 04:22:36;;;;;;;52.70;27.40;;;9.70;99.90;;;;;;5073723;28;20199;-81
2021/05/28 04:25:03;;;;;;;59.83;27.80;;;10.00;99.90;;;;;;5073996;28;20706;-79
2021/05/28 04:27:29;;;;;;;45.30;24.70;;;10.40;99.90;;;;;;5073622;28;20320;-79
2021/05/28 04:29:56;;;;;;;48.03;24.83;;;10.80;99.90;;;;;;5073253;28;20198;-80
2021/05/28 04:32:23;;;;;;;41.70;22.47;;;11.40;99.90;;;;;;5073558;28;20288;-79
2021/05/28 04:34:49;;;;;;;39.97;22.67;;;12.00;99.90;;;;;;5055371;28;20290;-79
2021/05/28 04:37:16;;;;;;;32.87;20.97;;;12.50;99.90;;;;;;5053596;28;20200;-79
2021/05/28 04:39:42;;;;;;;29.97;17.90;;;13.10;99.90;;;;;;5054015;28;20237;-79
2021/05/28 04:42:08;;;;;;;21.83;15.93;;;13.70;99.90;;;;;;5065012;28;20219;-79
2021/05/28 04:44:35;;;;;;;27.80;15.47;;;14.30;99.90;;;;;;5072174;28;20188;-79
2021/05/28 04:47:01;;;;;;;27.63;14.60;;;14.90;99.90;;;;;;5072676;28;20250;-79
2021/05/28 04:49:29;;;;;;;25.87;13.93;;;15.10;99.90;;;;;;5072324;28;20261;-80
2021/05/28 04:51:55;;;;;;;22.83;13.37;;;15.20;99.90;;;;;;5072404;28;20274;-79
2021/05/28 04:54:22;;;;;;;22.40;13.83;;;15.00;99.90;;;;;;5071900;28;20234;-79
2021/05/28 04:56:48;;;;;;;21.87;13.93;;;14.90;99.90;;;;;;5071871;28;20196;-79
2021/05/28 04:59:15;;;;;;;23.47;13.60;;;14.80;99.90;;;;;;5054336;28;20303;-79
2021/05/28 05:01:41;;;;;;;20.07;14.07;;;14.90;99.90;;;;;;5066810;28;20234;-79
2021/05/28 05:04:07;;;;;;;25.83;15.00;;;15.00;99.90;;;;;;5070605;28;20290;-83
2021/05/28 05:06:35;;;;;;;22.50;14.20;;;14.80;99.90;;;;;;5072199;28;20250;-84
2021/05/28 05:09:01;;;;;;;25.03;14.27;;;14.30;99.90;;;;;;5072478;28;20226;-82
2021/05/28 05:11:27;;;;;;;23.70;14.10;;;13.80;99.90;;;;;;5071958;28;20290;-84
2021/05/28 05:13:54;;;;;;;25.63;14.67;;;13.50;99.90;;;;;;5071556;28;20603;-84
2021/05/28 05:16:21;;;;;;;29.47;15.77;;;12.80;99.90;;;;;;5071060;28;20283;-83
2021/05/28 05:18:48;;;;;;;25.53;15.73;;;12.70;99.90;;;;;;5070040;28;20218;-82
2021/05/28 05:21:15;;;;;;;23.93;15.23;;;12.80;99.90;;;;;;5070559;28;20249;-83
2021/05/28 05:23:42;;;;;;;23.43;15.40;;;13.40;99.90;;;;;;5071814;28;20196;-84
2021/05/28 05:26:09;;;;;;;22.93;13.97;;;14.00;99.90;;;;;;5071287;28;20242;-83
2021/05/28 05:28:35;;;;;;;25.23;14.60;;;14.50;99.90;;;;;;5071365;28;20290;-83
2021/05/28 05:31:03;;;;;;;21.67;13.73;;;14.80;99.90;;;;;;5071922;28;20645;-84
2021/05/28 05:33:30;;;;;;;20.93;14.63;;;14.80;99.90;;;;;;5071960;28;20234;-84
2021/05/28 05:35:56;;;;;;;21.10;14.53;;;14.70;99.90;;;;;;5071866;28;20687;-82
2021/05/28 05:38:23;;;;;;;23.90;14.83;;;14.70;99.90;;;;;;5071547;28;20295;-83
2021/05/28 05:40:50;;;;;;;22.83;14.13;;;14.50;99.90;;;;;;5071960;28;20198;-84
2021/05/28 05:43:16;;;;;;;20.27;14.23;;;14.30;99.90;;;;;;5072391;28;20234;-83
2021/05/28 05:45:43;;;;;;;21.47;13.40;;;14.20;99.90;;;;;;5071956;28;20622;-78
2021/05/28 05:48:09;;;;;;;28.37;14.37;;;14.80;99.90;;;;;;5072326;28;20242;-80
2021/05/28 05:50:36;;;;;;;26.63;13.83;;;15.50;99.90;;;;;;5072417;28;20207;-80
2021/05/28 05:53:02;;;;;;;23.73;13.57;;;16.20;99.90;;;;;;5071963;28;20654;-79
2021/05/28 05:55:29;;;;;;;20.37;13.63;;;16.70;99.90;;;;;;5071965;28;20692;-80
2021/05/28 05:57:56;;;;;;;21.07;13.33;;;17.00;99.90;;;;;;5069948;28;20740;-79
2021/05/28 06:00:23;;;;;;;21.93;13.73;;;17.20;99.90;;;;;;5053128;28;20302;-79
2021/05/28 06:02:49;;;;;;;18.97;13.10;;;17.20;99.90;;;;;;5063699;28;20199;-79
2021/05/28 06:05:18;;;;;;;21.23;13.53;;;17.30;99.90;;;;;;5070530;28;20202;-79
2021/05/28 06:07:44;;;;;;;20.03;13.27;;;17.40;99.90;;;;;;5073210;28;20196;-80
2021/05/28 06:10:12;;;;;;;18.73;13.03;;;17.70;99.90;;;;;;5074961;28;20537;-77
2021/05/28 06:12:39;;;;;;;19.77;13.07;;;17.80;99.90;;;;;;5075293;28;20245;-80
2021/05/28 06:15:07;;;;;;;18.83;12.30;;;18.00;99.90;;;;;;5073923;28;20668;-79
2021/05/28 06:17:33;;;;;;;21.90;12.47;;;18.10;99.90;;;;;;5061973;28;20232;-79
2021/05/28 06:20:00;;;;;;;21.40;12.67;;;17.80;99.90;;;;;;5073544;28;20282;-79
2021/05/28 06:22:26;;;;;;;23.83;13.03;;;18.30;99.90;;;;;;5071118;28;20205;-79
2021/05/28 06:24:53;;;;;;;16.33;12.10;;;18.30;99.90;;;;;;5055738;28;20232;-79
2021/05/28 06:27:19;;;;;;;22.67;12.60;;;18.10;99.90;;;;;;5073234;28;20234;-79
2021/05/28 06:29:46;;;;;;;21.97;13.17;;;18.30;99.90;;;;;;5075853;28;20298;-79
2021/05/28 06:32:13;;;;;;;21.13;12.33;;;18.80;99.90;;;;;;5075727;28;20287;-80
2021/05/28 06:34:40;;;;;;;20.67;12.13;;;19.10;99.90;;;;;;5074543;28;20286;-79
2021/05/28 06:37:06;;;;;;;19.97;12.90;;;19.20;99.90;;;;;;5074387;28;20306;-80
2021/05/28 06:39:33;;;;;;;18.27;13.23;;;19.30;99.90;;;;;;5073676;28;20575;-79
2021/05/28 06:42:00;;;;;;;25.00;13.97;;;18.80;99.90;;;;;;5064240;28;20216;-79
2021/05/28 06:44:26;;;;;;;20.60;13.07;;;18.70;99.90;;;;;;5070635;28;20223;-79
2021/05/28 06:46:53;;;;;;;19.30;12.57;;;18.90;99.90;;;;;;5064257;28;20777;-79
2021/05/28 06:49:21;;;;;;;17.80;11.07;;;18.60;99.90;;;;;;5054639;28;20646;-79
2021/05/28 06:51:48;;;;;;;16.40;11.13;;;18.40;99.90;;;;;;5065816;28;20200;-79
2021/05/28 06:54:15;;;;;;;22.83;12.13;;;18.50;99.90;;;;;;5074472;28;20310;-79
2021/05/28 06:56:41;;;;;;;26.03;13.60;;;18.10;99.90;;;;;;5069113;28;20203;-79
2021/05/28 06:59:09;;;;;;;22.63;14.07;;;17.50;99.90;;;;;;5073941;28;20283;-79
2021/05/28 07:01:35;;;;;;;19.93;13.70;;;17.20;99.90;;;;;;5074454;28;20664;-79
2021/05/28 07:04:03;;;;;;;21.63;13.20;;;16.80;99.90;;;;;;5074267;28;20227;-79
2021/05/28 07:06:32;;;;;;;19.43;13.80;;;17.10;99.90;;;;;;5074567;28;20222;-78
2021/05/28 07:08:59;;;;;;;22.10;13.83;;;17.80;99.90;;;;;;5073547;28;20232;-79
2021/05/28 07:11:26;;;;;;;20.00;13.20;;;18.50;99.90;;;;;;5070811;28;20673;-79
2021/05/28 07:13:52;;;;;;;19.80;14.40;;;18.20;99.90;;;;;;5073604;28;20204;-79
2021/05/28 07:16:19;;;;;;;20.87;14.23;;;18.10;99.90;;;;;;5074280;28;20199;-78
2021/05/28 07:18:45;;;;;;;19.83;14.37;;;18.00;99.90;;;;;;5069762;28;20334;-79
2021/05/28 07:21:12;;;;;;;21.87;15.00;;;17.60;99.90;;;;;;5067734;28;20230;-80
2021/05/28 07:23:39;;;;;;;27.70;15.90;;;17.40;99.90;;;;;;5074354;28;20745;-79
2021/05/28 07:26:05;;;;;;;25.83;16.83;;;17.90;99.90;;;;;;5069350;28;20356;-79
2021/05/28 07:28:32;;;;;;;24.77;15.43;;;18.50;99.90;;;;;;5074692;28;20294;-79
2021/05/28 07:30:59;;;;;;;22.90;15.87;;;19.00;99.90;;;;;;5074596;28;20291;-79
2021/05/28 07:33:26;;;;;;;33.33;17.03;;;19.20;99.90;;;;;;5074733;28;20615;-79
2021/05/28 07:35:53;;;;;;;27.20;16.10;;;18.70;99.90;;;;;;5073916;28;20204;-79
2021/05/28 07:38:20;;;;;;;26.30;17.20;;;18.80;99.90;;;;;;5060346;28;20291;-79
2021/05/28 07:40:47;;;;;;;26.90;17.97;;;19.30;99.90;;;;;;5073980;28;20305;-79
2021/05/28 07:43:13;;;;;;;25.70;18.53;;;19.60;99.90;;;;;;5074044;28;20192;-79
2021/05/28 07:45:40;;;;;;;26.20;18.63;;;19.50;99.90;;;;;;5062704;28;20290;-79
2021/05/28 07:48:07;;;;;;;24.07;16.33;;;19.70;99.90;;;;;;5064635;28;20265;-79
2021/05/28 07:50:45;;;;;;;28.40;17.20;;;19.40;99.90;;;;;;5060962;28;20206;-79
2021/05/28 07:53:12;;;;;;;28.20;16.80;;;19.20;99.90;;;;;;5072599;28;20207;-79
2021/05/28 07:55:38;;;;;;;25.87;16.87;;;18.30;99.90;;;;;;5072631;28;20684;-79
2021/05/28 07:58:05;;;;;;;27.03;16.80;;;17.80;99.90;;;;;;5060619;28;20578;-79
2021/05/28 08:00:32;;;;;;;20.90;15.33;;;17.80;99.90;;;;;;5072845;28;20199;-79
2021/05/28 08:03:00;;;;;;;23.33;15.30;;;18.30;99.90;;;;;;5072034;28;20303;-79
2021/05/28 08:05:26;;;;;;;23.70;15.10;;;19.20;99.90;;;;;;5073214;28;20310;-79
2021/05/28 08:07:54;;;;;;;19.43;14.00;;;20.60;99.90;;;;;;5074447;28;20278;-79
2021/05/28 08:10:20;;;;;;;21.10;13.50;;;21.90;99.90;;;;;;5073529;28;20283;-79
2021/05/28 08:12:47;;;;;;;22.50;15.07;;;23.00;99.90;;;;;;5074025;28;20278;-79
2021/05/28 08:15:15;;;;;;;20.90;14.13;;;23.90;99.90;;;;;;5073605;28;20294;-81
2021/05/28 08:17:41;;;;;;;20.85;13.93;;;24.30;99.90;;;;;;5074123;28;20196;-78
2021/05/28 08:20:09;;;;;;;17.23;12.38;;;24.50;99.90;;;;;;5073418;28;20284;-79
2021/05/28 08:22:35;;;;;;;19.35;13.57;;;24.60;99.90;;;;;;5073830;28;20257;-78
2021/05/28 08:25:02;;;;;;;16.67;11.95;;;24.00;99.90;;;;;;5073899;28;20282;-78
2021/05/28 08:27:28;;;;;;;19.27;12.80;;;24.10;99.90;;;;;;5074102;28;20227;-81
2021/05/28 08:29:54;;;;;;;22.05;13.25;;;25.30;99.90;;;;;;5073047;28;20573;-79
2021/05/28 08:32:21;;;;;;;18.25;10.88;;;25.40;99.90;;;;;;5071439;28;20632;-79
2021/05/28 08:34:48;;;;;;;17.63;11.13;;;25.80;99.90;;;;;;5072832;28;20202;-80
2021/05/28 08:37:14;;;;;;;16.48;11.40;;;26.50;99.90;;;;;;5072022;28;20290;-79
2021/05/28 08:39:41;;;;;;;18.90;11.60;;;24.70;99.90;;;;;;5073396;28;20195;-81
2021/05/28 08:42:10;;;;;;;14.65;8.50;;;24.10;99.90;;;;;;5072661;28;20279;-78
2021/05/28 08:44:37;;;;;;;14.02;8.70;;;22.60;99.90;;;;;;5072992;28;20726;-78
2021/05/28 08:47:05;;;;;;;17.42;10.52;;;23.10;99.90;;;;;;5073340;28;20326;-78
2021/05/28 08:49:32;;;;;;;13.63;9.85;;;23.30;99.90;;;;;;5073482;28;20282;-79
2021/05/28 08:52:00;;;;;;;13.77;8.70;;;24.00;99.90;;;;;;5073011;28;20283;-78
2021/05/28 08:54:26;;;;;;;17.90;9.38;;;23.90;99.90;;;;;;5073708;28;20192;-78
2021/05/28 08:56:53;;;;;;;15.68;8.98;;;22.70;99.90;;;;;;5073755;28;20294;-78
2021/05/28 08:59:19;;;;;;;14.98;9.18;;;22.90;99.90;;;;;;5073215;28;20206;-81
2021/05/28 09:01:46;;;;;;;17.08;9.85;;;23.20;99.90;;;;;;5072700;28;20298;-78
2021/05/28 09:04:13;;;;;;;11.57;7.45;;;23.70;99.90;;;;;;5072959;28;20658;-78
2021/05/28 09:06:42;;;;;;;13.13;6.72;;;24.80;99.90;;;;;;5073167;28;20215;-81
2021/05/28 09:09:11;;;;;;;10.88;6.75;;;25.40;99.90;;;;;;5073165;28;20257;-80
2021/05/28 09:11:54;;;;;;;14.02;7.20;;;25.60;99.90;;;;;;5072590;28;20673;-80
2021/05/28 09:14:31;;;;;;;13.40;7.35;;;25.70;99.90;;;;;;5073066;28;20211;-79
2021/05/28 09:16:57;;;;;;;11.68;7.85;;;24.90;99.90;;;;;;5073705;28;20239;-80
2021/05/28 09:19:24;;;;;;;11.90;8.07;;;24.70;99.90;;;;;;5072595;28;20199;-78
2021/05/28 09:22:02;;;;;;;11.13;6.90;;;24.50;99.90;;;;;;5072920;28;20196;-81
2021/05/28 09:24:31;;;;;;;12.32;6.85;;;25.30;99.90;;;;;;5072336;28;20203;-80
2021/05/28 09:27:23;;;;;;;10.07;7.03;;;25.30;99.90;;;;;;5072189;28;20230;-79
2021/05/28 09:30:08;;;;;;;12.63;6.93;;;24.50;99.90;;;;;;5071752;28;20196;-82
2021/05/28 09:32:36;;;;;;;13.33;7.13;;;22.50;99.90;;;;;;5072296;28;20265;-82
2021/05/28 09:35:04;;;;;;;13.73;6.72;;;22.60;99.90;;;;;;5072923;28;20204;-81
2021/05/28 09:37:42;;;;;;;11.57;6.32;;;23.10;99.90;;;;;;5071288;28;20207;-80
2021/05/28 09:40:13;;;;;;;8.43;4.90;;;22.90;99.90;;;;;;5068326;28;20264;-79
2021/05/28 09:42:54;;;;;;;10.83;5.27;;;23.20;99.90;;;;;;5064313;28;20195;-81
2021/05/28 09:45:23;;;;;;;10.83;5.30;;;23.20;99.90;;;;;;5073037;28;20206;-79
2021/05/28 09:47:50;;;;;;;10.73;5.10;;;23.10;99.90;;;;;;5072664;28;20230;-79
2021/05/28 09:50:17;;;;;;;9.80;4.40;;;23.40;99.90;;;;;;5072264;28;20639;-81
2021/05/28 09:52:44;;;;;;;9.67;5.07;;;23.10;99.90;;;;;;5072446;28;20282;-79
2021/05/28 09:55:12;;;;;;;12.87;5.33;;;22.80;99.90;;;;;;5072480;28;20666;-81
2021/05/28 09:57:41;;;;;;;12.07;5.20;;;22.20;99.90;;;;;;5068618;28;20211;-80
2021/05/28 10:00:09;;;;;;;11.97;5.97;;;22.50;99.90;;;;;;5054596;28;20226;-82
2021/05/28 10:02:40;;;;;;;13.10;5.90;;;22.70;99.90;;;;;;5070040;28;20199;-81
2021/05/28 10:05:08;;;;;;;11.73;5.63;;;22.80;99.90;;;;;;5052453;28;20192;-79
2021/05/28 10:07:36;;;;;;;10.43;6.17;;;22.70;99.90;;;;;;5068533;28;20246;-79
2021/05/28 10:10:05;;;;;;;9.20;6.20;;;22.80;99.90;;;;;;5072942;28;20290;-82
2021/05/28 10:12:32;;;;;;;11.87;6.67;;;23.80;99.90;;;;;;5071905;28;20192;-80
2021/05/28 10:14:58;;;;;;;10.50;6.73;;;23.10;99.90;;;;;;5071244;28;20294;-80
2021/05/28 10:17:25;;;;;;;10.38;5.90;;;22.90;99.90;;;;;;5072655;28;20283;-79
2021/05/28 10:19:51;;;;;;;7.90;5.38;;;22.90;99.90;;;;;;5072907;28;20254;-79
2021/05/28 10:22:21;;;;;;;8.07;5.03;;;22.50;99.90;;;;;;5072730;28;20472;-81
2021/05/28 10:24:48;;;;;;;13.00;6.70;;;22.10;99.90;;;;;;5073043;28;20256;-79
2021/05/28 10:27:21;;;;;;;8.70;6.10;;;21.50;99.90;;;;;;5072662;28;20673;-81
2021/05/28 10:29:50;;;;;;;10.37;4.93;;;21.60;99.90;;;;;;5072702;28;20226;-79
2021/05/28 10:32:16;;;;;;;9.53;4.40;;;21.40;99.90;;;;;;5072591;28;20223;-78
2021/05/28 10:35:06;;;;;;;8.20;4.63;;;21.90;99.90;;;;;;5072978;28;20242;-82
2021/05/28 10:37:32;;;;;;;7.43;4.77;;;22.70;99.90;;;;;;5072763;28;20196;-78
2021/05/28 10:39:59;;;;;;;12.27;4.23;;;22.40;99.90;;;;;;5072424;28;20192;-78
2021/05/28 10:42:27;;;;;;;6.10;4.57;;;22.50;99.90;;;;;;5072514;28;20728;-81
2021/05/28 10:44:54;;;;;;;7.47;4.73;;;23.00;99.90;;;;;;5072342;28;20290;-78
2021/05/28 10:47:22;;;;;;;7.60;5.27;;;23.40;99.90;;;;;;5072553;28;20683;-79
2021/05/28 10:49:50;;;;;;;7.85;4.95;;;23.70;99.90;;;;;;5072411;28;20200;-79
2021/05/28 10:52:27;;;;;;;8.10;5.30;;;23.40;99.90;;;;;;5072510;28;20286;-78
2021/05/28 10:55:00;;;;;;;9.73;5.03;;;23.50;99.90;;;;;;5074930;28;20620;-81
2021/05/28 10:57:29;;;;;;;9.20;5.80;;;23.40;99.90;;;;;;5075943;28;20206;-79
2021/05/28 10:59:58;;;;;;;7.60;5.13;;;22.80;99.90;;;;;;5075840;28;20289;-79
2021/05/28 11:02:53;;;;;;;8.30;5.40;;;22.20;99.90;;;;;;5075832;28;20207;-81
2021/05/28 11:05:38;;;;;;;9.37;5.30;;;21.90;99.90;;;;;;5075746;28;20269;-79
2021/05/28 11:08:25;;;;;;;8.83;4.70;;;22.50;99.90;;;;;;5075871;28;20596;-82
2021/05/28 11:10:52;;;;;;;6.18;4.10;;;22.70;99.90;;;;;;5075591;28;20290;-78
2021/05/28 11:13:20;;;;;;;6.53;4.27;;;22.60;99.90;;;;;;5075481;28;20278;-79
2021/05/28 11:15:57;;;;;;;7.77;3.90;;;22.80;99.90;;;;;;5075482;28;20282;-79
2021/05/28 11:18:29;;;;;;;6.60;4.03;;;22.70;99.90;;;;;;5075518;28;20668;-79
2021/05/28 11:21:14;;;;;;;10.03;5.40;;;22.60;99.90;;;;;;5075762;28;20192;-79
2021/05/28 11:23:43;;;;;;;10.20;4.60;;;22.90;99.90;;;;;;5075450;28;20676;-79
2021/05/28 11:26:15;;;;;;;10.10;4.45;;;22.90;99.90;;;;;;5075419;28;20236;-83
2021/05/28 11:28:55;;;;;;;6.93;4.50;;;22.80;99.90;;;;;;5074194;28;20203;-78
2021/05/28 11:31:23;;;;;;;7.20;4.50;;;22.30;99.90;;;;;;5072725;28;20234;-79
2021/05/28 11:33:56;;;;;;;7.43;4.83;;;21.80;99.90;;;;;;5073558;28;20270;-79
2021/05/28 11:36:52;;;;;;;8.57;4.80;;;21.40;99.90;;;;;;5073235;28;20195;-82
2021/05/28 11:39:24;;;;;;;5.77;4.40;;;21.20;99.90;;;;;;5075669;28;20196;-79
2021/05/28 11:42:00;;;;;;;10.13;5.00;;;21.60;99.90;;;;;;5074529;28;20278;-81
2021/05/28 11:44:29;;;;;;;8.60;4.77;;;22.40;99.90;;;;;;5071829;28;20199;-79
2021/05/28 11:46:56;;;;;;;7.07;5.13;;;22.40;99.90;;;;;;5073696;28;20310;-81
2021/05/28 11:49:23;;;;;;;9.23;5.33;;;21.70;99.90;;;;;;5074630;28;20227;-81
2021/05/28 11:52:05;;;;;;;10.60;5.07;;;21.60;99.90;;;;;;5073765;28;20211;-80
2021/05/28 11:54:34;;;;;;;10.97;4.93;;;21.80;99.90;;;;;;5074258;28;20219;-79
2021/05/28 11:57:04;;;;;;;8.70;4.77;;;21.80;99.90;;;;;;5074035;28;20286;-81
2021/05/28 11:59:52;;;;;;;7.90;4.83;;;20.80;99.90;;;;;;5071997;28;20199;-80
2021/05/28 12:02:32;;;;;;;7.50;5.00;;;21.00;99.90;;;;;;5069895;28;20203;-79
2021/05/28 12:04:59;;;;;;;5.30;4.10;;;21.40;99.90;;;;;;5073237;28;20586;-79
2021/05/28 12:07:28;;;;;;;7.27;4.87;;;21.70;99.90;;;;;;5067050;28;20687;-79
2021/05/28 12:10:06;;;;;;;9.73;5.40;;;21.70;99.90;;;;;;5074577;28;20697;-79
2021/05/28 12:12:56;;;;;;;12.77;6.10;;;21.30;99.90;;;;;;5073044;28;20640;-79
2021/05/28 12:15:25;;;;;;;6.77;5.07;;;21.00;99.90;;;;;;5073719;28;20215;-79
2021/05/28 12:17:52;;;;;;;8.40;4.60;;;21.00;99.90;;;;;;5071917;28;20192;-79
2021/05/28 12:20:22;;;;;;;7.43;4.90;;;21.30;99.90;;;;;;5054451;28;20295;-79
2021/05/28 12:23:04;;;;;;;8.87;4.80;;;21.60;99.90;;;;;;5071299;28;20234;-80
2021/05/28 12:25:32;;;;;;;7.70;4.53;;;22.20;99.90;;;;;;5074259;28;20223;-79
2021/05/28 12:28:19;;;;;;;6.23;4.53;;;22.60;99.90;;;;;;5073616;28;20247;-80
2021/05/28 12:30:49;;;;;;;9.95;4.55;;;22.60;99.90;;;;;;5071188;28;20660;-81
2021/05/28 12:33:17;;;;;;;5.90;4.80;;;22.90;99.90;;;;;;5072599;28;20680;-79
2021/05/28 12:35:49;;;;;;;7.53;4.90;;;22.70;99.90;;;;;;5071712;28;20223;-80
2021/05/28 12:38:17;;;;;;;6.35;4.53;;;22.70;99.90;;;;;;5073716;28;20245;-81
2021/05/28 12:40:47;;;;;;;8.95;4.90;;;22.80;99.90;;;;;;5073691;28;20200;-78